Time;durP1;ratioP1;P1;durP2;ratioP2;P2;SDS_P1;SDS_P2;PMS_P1;PMS_P2;Temp;Humidity;BMP_temperature;BMP_pressure;BME280_temperature;BME280_humidity;BME280_pressure;Samples;Min_cycle;Max_cycle;Signal;HPM_P1;HPM_P2
2023/12/26 00:02:04;;;;;;;9.07;2.45;;;;;;;;;;5044308;28;25094;-77
2023/12/26 00:04:30;;;;;;;3.80;2.22;;;;;;;;;;5040394;28;25077;-77
2023/12/26 00:06:56;;;;;;;8.13;2.60;;;;;;;;;;5044226;28;25071;-77
2023/12/26 00:09:22;;;;;;;8.70;3.17;;;;;;;;;;5039256;28;25099;-77
2023/12/26 00:11:48;;;;;;;10.25;2.90;;;;;;;;;;5044975;28;25082;-78
2023/12/26 00:14:17;;;;;;;10.57;2.90;;;;;;;;;;5044699;28;25055;-78
2023/12/26 00:16:43;;;;;;;6.75;2.60;;;;;;;;;;5049734;28;25067;-78
2023/12/26 00:19:10;;;;;;;6.15;3.20;;;;;;;;;;5044333;28;25077;-77
2023/12/26 00:21:39;;;;;;;8.02;2.83;;;;;;;;;;5029088;28;25125;-78
2023/12/26 00:24:06;;;;;;;6.93;3.03;;;;;;;;;;5025807;28;25102;-76
2023/12/26 00:26:32;;;;;;;6.95;2.83;;;;;;;;;;5021332;28;25071;-78
2023/12/26 00:28:58;;;;;;;10.23;2.70;;;;;;;;;;5026543;28;25067;-77
2023/12/26 00:31:24;;;;;;;8.57;2.80;;;;;;;;;;5024652;28;25147;-77
2023/12/26 00:33:53;;;;;;;10.90;3.30;;;;;;;;;;5028989;28;25081;-77
2023/12/26 00:36:19;;;;;;;8.00;2.30;;;;;;;;;;5029539;28;25067;-77
2023/12/26 00:38:45;;;;;;;3.88;2.00;;;;;;;;;;5032923;28;25066;-78
2023/12/26 00:41:12;;;;;;;3.92;2.35;;;;;;;;;;5029564;28;25119;-79
2023/12/26 00:43:38;;;;;;;10.60;2.45;;;;;;;;;;5022072;28;25071;-77
2023/12/26 00:46:04;;;;;;;7.05;2.63;;;;;;;;;;5024926;28;25118;-75
2023/12/26 00:48:30;;;;;;;7.40;2.15;;;;;;;;;;5025237;28;25058;-76
2023/12/26 00:50:56;;;;;;;6.15;2.30;;;;;;;;;;5025810;28;25056;-76
2023/12/26 00:53:22;;;;;;;6.15;2.35;;;;;;;;;;5029328;28;25085;-80
2023/12/26 00:55:48;;;;;;;7.30;2.67;;;;;;;;;;5024836;28;25064;-78
2023/12/26 00:58:14;;;;;;;7.70;2.80;;;;;;;;;;5019772;28;25068;-76
2023/12/26 01:00:40;;;;;;;9.25;2.33;;;;;;;;;;5028944;28;25132;-79
2023/12/26 01:03:05;;;;;;;6.40;1.90;;;;;;;;;;5025402;28;25050;-77
2023/12/26 01:05:31;;;;;;;8.90;2.05;;;;;;;;;;5024182;28;25128;-79
2023/12/26 01:07:58;;;;;;;6.03;2.15;;;;;;;;;;5022940;28;25168;-77
2023/12/26 01:10:24;;;;;;;6.75;2.22;;;;;;;;;;5018505;28;25062;-81
2023/12/26 01:12:50;;;;;;;9.52;2.40;;;;;;;;;;5028642;28;25126;-77
2023/12/26 01:15:16;;;;;;;7.10;2.55;;;;;;;;;;5027594;28;25086;-76
2023/12/26 01:17:42;;;;;;;8.75;2.53;;;;;;;;;;5029210;28;25053;-78
2023/12/26 01:20:08;;;;;;;13.00;3.17;;;;;;;;;;5018379;28;25049;-78
2023/12/26 01:22:34;;;;;;;9.65;2.80;;;;;;;;;;5032681;28;25088;-81
2023/12/26 01:25:00;;;;;;;10.50;2.47;;;;;;;;;;5026657;28;25071;-77
2023/12/26 01:27:26;;;;;;;11.35;3.22;;;;;;;;;;5026807;28;25059;-79
2023/12/26 01:29:52;;;;;;;10.27;2.85;;;;;;;;;;5022897;28;25086;-80
2023/12/26 01:32:19;;;;;;;10.20;3.20;;;;;;;;;;5028685;28;25086;-78
2023/12/26 01:34:45;;;;;;;18.40;3.30;;;;;;;;;;5027403;28;25066;-79
2023/12/26 01:37:11;;;;;;;15.48;3.15;;;;;;;;;;5026567;28;25063;-78
2023/12/26 01:39:37;;;;;;;12.45;3.42;;;;;;;;;;5023627;28;25056;-77
2023/12/26 01:42:03;;;;;;;16.90;3.30;;;;;;;;;;5021172;28;25068;-77
2023/12/26 01:44:29;;;;;;;13.43;3.17;;;;;;;;;;5025201;28;25066;-77
2023/12/26 01:46:55;;;;;;;15.23;3.15;;;;;;;;;;5025415;28;25050;-77
2023/12/26 01:49:21;;;;;;;14.55;3.65;;;;;;;;;;5027250;28;25062;-76
2023/12/26 01:51:48;;;;;;;12.02;3.15;;;;;;;;;;5027578;28;25073;-76
2023/12/26 01:54:14;;;;;;;22.55;4.72;;;;;;;;;;5040946;28;25081;-77
2023/12/26 01:56:41;;;;;;;19.48;3.83;;;;;;;;;;5028808;28;25101;-76
2023/12/26 01:59:07;;;;;;;19.10;3.53;;;;;;;;;;5022968;28;25052;-76
2023/12/26 02:01:33;;;;;;;16.10;3.60;;;;;;;;;;5025945;28;25132;-76
2023/12/26 02:03:59;;;;;;;31.27;4.65;;;;;;;;;;5028080;28;25150;-78
2023/12/26 02:06:25;;;;;;;20.42;3.72;;;;;;;;;;5024010;28;25054;-76
2023/12/26 02:08:51;;;;;;;14.52;4.38;;;;;;;;;;5023314;28;25052;-77
2023/12/26 02:11:17;;;;;;;27.45;4.95;;;;;;;;;;5021389;28;25075;-77
2023/12/26 02:13:43;;;;;;;21.58;5.50;;;;;;;;;;5022459;28;25095;-75
2023/12/26 02:16:21;;;;;;;20.25;4.57;;;;;;;;;;5024666;28;25088;-77
2023/12/26 02:18:47;;;;;;;22.48;4.82;;;;;;;;;;5024268;28;25069;-75
2023/12/26 02:21:13;;;;;;;26.45;5.30;;;;;;;;;;5019767;28;25066;-74
2023/12/26 02:23:39;;;;;;;21.38;5.53;;;;;;;;;;5029035;28;25140;-76
2023/12/26 02:26:05;;;;;;;19.85;6.05;;;;;;;;;;5030054;28;25098;-76
2023/12/26 02:28:33;;;;;;;32.33;5.28;;;;;;;;;;5026829;28;25098;-75
2023/12/26 02:31:02;;;;;;;21.48;5.10;;;;;;;;;;5027767;28;25067;-75
2023/12/26 02:33:29;;;;;;;22.42;5.28;;;;;;;;;;5029374;28;25072;-74
2023/12/26 02:35:55;;;;;;;25.60;5.32;;;;;;;;;;5029358;28;25065;-75
2023/12/26 02:38:21;;;;;;;21.77;5.60;;;;;;;;;;5027951;28;25046;-75
2023/12/26 02:40:52;;;;;;;22.08;5.70;;;;;;;;;;5027565;28;25169;-76
2023/12/26 02:43:25;;;;;;;27.73;5.45;;;;;;;;;;5024229;28;25050;-75
2023/12/26 02:45:51;;;;;;;23.80;5.22;;;;;;;;;;5027844;28;25083;-73
2023/12/26 02:48:17;;;;;;;15.68;4.57;;;;;;;;;;5027136;28;25062;-76
2023/12/26 02:50:44;;;;;;;17.27;4.40;;;;;;;;;;5027630;28;25049;-75
2023/12/26 02:53:10;;;;;;;18.52;4.20;;;;;;;;;;5026546;28;25072;-75
2023/12/26 02:55:36;;;;;;;10.73;3.67;;;;;;;;;;5027965;28;25121;-74
2023/12/26 02:58:02;;;;;;;16.55;3.78;;;;;;;;;;5024384;28;25073;-76
2023/12/26 03:00:28;;;;;;;8.13;3.03;;;;;;;;;;5026241;28;25071;-75
2023/12/26 03:02:54;;;;;;;9.63;3.63;;;;;;;;;;5027854;28;25135;-74
2023/12/26 03:05:20;;;;;;;9.30;2.90;;;;;;;;;;5026665;28;25139;-75
2023/12/26 03:07:46;;;;;;;8.60;2.88;;;;;;;;;;5033182;28;25064;-74
2023/12/26 03:10:12;;;;;;;10.63;3.75;;;;;;;;;;5032428;28;25070;-74
2023/12/26 03:12:38;;;;;;;13.15;3.50;;;;;;;;;;5026720;28;25066;-73
2023/12/26 03:15:04;;;;;;;14.02;3.33;;;;;;;;;;5026115;28;25130;-74
2023/12/26 03:17:30;;;;;;;17.60;4.03;;;;;;;;;;5026963;28;25069;-73
2023/12/26 03:19:56;;;;;;;11.68;3.10;;;;;;;;;;5024763;28;25066;-74
2023/12/26 03:22:22;;;;;;;14.68;3.45;;;;;;;;;;5026163;28;25075;-74
2023/12/26 03:24:48;;;;;;;12.32;2.90;;;;;;;;;;5026400;28;25072;-75
2023/12/26 03:27:15;;;;;;;13.07;3.10;;;;;;;;;;5028941;28;25167;-73
2023/12/26 03:29:41;;;;;;;8.93;2.63;;;;;;;;;;5024201;28;25089;-72
2023/12/26 03:32:08;;;;;;;19.27;3.50;;;;;;;;;;5028024;28;25090;-71
2023/12/26 03:34:34;;;;;;;7.07;2.72;;;;;;;;;;5029281;28;25106;-73
2023/12/26 03:37:01;;;;;;;15.23;3.63;;;;;;;;;;5029385;28;25086;-73
2023/12/26 03:39:27;;;;;;;19.55;4.28;;;;;;;;;;5035419;28;25045;-74
2023/12/26 03:41:53;;;;;;;16.90;3.35;;;;;;;;;;5043529;28;25051;-74
2023/12/26 03:44:19;;;;;;;13.75;2.88;;;;;;;;;;5049448;28;25115;-74
2023/12/26 03:46:45;;;;;;;10.85;2.95;;;;;;;;;;5044310;28;25073;-72
2023/12/26 03:49:11;;;;;;;13.13;3.38;;;;;;;;;;5045200;28;25083;-73
2023/12/26 03:51:37;;;;;;;14.52;3.80;;;;;;;;;;5048018;28;25058;-74
2023/12/26 03:54:03;;;;;;;11.75;3.20;;;;;;;;;;5044975;28;25063;-73
2023/12/26 03:56:35;;;;;;;13.32;3.28;;;;;;;;;;5043536;28;25073;-73
2023/12/26 03:59:02;;;;;;;9.77;2.75;;;;;;;;;;5042941;28;25078;-72
2023/12/26 04:01:28;;;;;;;15.70;2.90;;;;;;;;;;5041785;28;25074;-74
2023/12/26 04:03:54;;;;;;;15.80;3.75;;;;;;;;;;5037899;28;25055;-73
2023/12/26 04:06:20;;;;;;;11.77;2.65;;;;;;;;;;5036682;28;25167;-73
2023/12/26 04:08:46;;;;;;;10.52;2.53;;;;;;;;;;5026990;28;25052;-73
2023/12/26 04:11:13;;;;;;;10.40;2.20;;;;;;;;;;5025972;28;25098;-74
2023/12/26 04:13:39;;;;;;;7.65;2.50;;;;;;;;;;5026292;28;25117;-73
2023/12/26 04:16:05;;;;;;;10.27;3.05;;;;;;;;;;5025223;28;25154;-73
2023/12/26 04:18:32;;;;;;;10.00;2.55;;;;;;;;;;5026900;28;25122;-71
2023/12/26 04:20:58;;;;;;;8.10;2.20;;;;;;;;;;5032184;28;25168;-73
2023/12/26 04:23:24;;;;;;;13.43;2.85;;;;;;;;;;5032695;28;25080;-74
2023/12/26 04:25:50;;;;;;;13.95;2.08;;;;;;;;;;5024265;28;25059;-74
2023/12/26 04:28:16;;;;;;;14.43;3.00;;;;;;;;;;5025511;28;25108;-73
2023/12/26 04:30:42;;;;;;;18.58;2.78;;;;;;;;;;5025014;28;25076;-72
2023/12/26 04:33:10;;;;;;;12.00;2.30;;;;;;;;;;5025545;28;25107;-74
2023/12/26 04:35:36;;;;;;;10.68;2.38;;;;;;;;;;5021796;28;25554;-72
2023/12/26 04:38:02;;;;;;;12.40;2.70;;;;;;;;;;5025401;28;25061;-74
2023/12/26 04:40:28;;;;;;;15.82;3.08;;;;;;;;;;5026102;28;25060;-75
2023/12/26 04:42:54;;;;;;;8.88;2.53;;;;;;;;;;5026964;28;25063;-73
2023/12/26 04:45:20;;;;;;;7.68;2.00;;;;;;;;;;5022818;28;25131;-72
2023/12/26 04:47:46;;;;;;;16.85;2.78;;;;;;;;;;5025673;28;25065;-73
2023/12/26 04:50:12;;;;;;;17.83;2.50;;;;;;;;;;5024802;28;25160;-72
2023/12/26 04:52:38;;;;;;;17.85;3.42;;;;;;;;;;5026278;28;25071;-73
2023/12/26 04:55:04;;;;;;;20.05;2.85;;;;;;;;;;5024617;28;25059;-73
2023/12/26 04:57:30;;;;;;;16.85;3.22;;;;;;;;;;5022808;28;25181;-74
2023/12/26 04:59:56;;;;;;;19.17;3.20;;;;;;;;;;5016006;28;25102;-72
2023/12/26 05:02:22;;;;;;;19.30;3.03;;;;;;;;;;5021462;28;25051;-70
2023/12/26 05:04:48;;;;;;;12.43;2.58;;;;;;;;;;5024983;28;25069;-71
2023/12/26 05:07:14;;;;;;;13.05;3.00;;;;;;;;;;5025656;28;25086;-71
2023/12/26 05:09:40;;;;;;;15.90;2.28;;;;;;;;;;5023341;28;25073;-70
2023/12/26 05:12:07;;;;;;;18.70;3.20;;;;;;;;;;5026128;28;25070;-71
2023/12/26 05:14:33;;;;;;;19.50;2.58;;;;;;;;;;5025852;28;25067;-71
2023/12/26 05:16:59;;;;;;;15.20;2.38;;;;;;;;;;5027641;28;25074;-72
2023/12/26 05:19:25;;;;;;;12.15;2.33;;;;;;;;;;5023868;28;25072;-71
2023/12/26 05:21:51;;;;;;;9.73;2.85;;;;;;;;;;5034183;28;25065;-70
2023/12/26 05:24:17;;;;;;;15.07;3.00;;;;;;;;;;5023125;28;25062;-71
2023/12/26 05:26:44;;;;;;;10.65;2.53;;;;;;;;;;5025812;28;25147;-71
2023/12/26 05:29:10;;;;;;;12.93;2.72;;;;;;;;;;5022742;28;25048;-71
2023/12/26 05:31:36;;;;;;;11.63;2.25;;;;;;;;;;5024673;28;25077;-71
2023/12/26 05:34:03;;;;;;;17.60;3.15;;;;;;;;;;5025454;28;25086;-71
2023/12/26 05:36:29;;;;;;;9.57;2.90;;;;;;;;;;5026650;28;25045;-71
2023/12/26 05:38:55;;;;;;;15.30;2.40;;;;;;;;;;5023882;28;25142;-71
2023/12/26 05:41:21;;;;;;;25.48;4.32;;;;;;;;;;5024495;28;25059;-71
2023/12/26 05:43:47;;;;;;;18.67;3.03;;;;;;;;;;5024109;28;25060;-72
2023/12/26 05:46:13;;;;;;;18.95;2.83;;;;;;;;;;5024074;28;25063;-71
2023/12/26 05:48:42;;;;;;;22.58;3.08;;;;;;;;;;5021798;28;25083;-70
2023/12/26 05:51:08;;;;;;;18.17;3.83;;;;;;;;;;5023960;28;25058;-71
2023/12/26 05:53:34;;;;;;;22.98;2.70;;;;;;;;;;5022131;28;25081;-71
2023/12/26 05:56:00;;;;;;;22.67;3.53;;;;;;;;;;5025056;28;25064;-71
2023/12/26 05:58:27;;;;;;;13.13;2.95;;;;;;;;;;5020769;28;25054;-71
2023/12/26 06:00:53;;;;;;;17.02;2.97;;;;;;;;;;5025290;28;25064;-70
2023/12/26 06:03:19;;;;;;;18.08;3.45;;;;;;;;;;5024951;28;25073;-70
2023/12/26 06:05:46;;;;;;;15.07;3.13;;;;;;;;;;5025306;28;25070;-72
2023/12/26 06:08:12;;;;;;;18.92;2.70;;;;;;;;;;5020953;28;25078;-72
2023/12/26 06:10:39;;;;;;;12.48;2.92;;;;;;;;;;5024336;28;25057;-70
2023/12/26 06:13:05;;;;;;;18.90;4.25;;;;;;;;;;5021967;28;25106;-70
2023/12/26 06:15:31;;;;;;;16.35;3.22;;;;;;;;;;5019030;28;25099;-71
2023/12/26 06:17:59;;;;;;;16.80;2.83;;;;;;;;;;5019952;28;25170;-71
2023/12/26 06:20:26;;;;;;;24.27;3.83;;;;;;;;;;5019111;28;25126;-71
2023/12/26 06:22:52;;;;;;;12.68;2.28;;;;;;;;;;5024172;28;25134;-70
2023/12/26 06:25:18;;;;;;;12.93;3.53;;;;;;;;;;5023231;28;25081;-71
2023/12/26 06:27:44;;;;;;;16.00;2.05;;;;;;;;;;5024535;28;25132;-71
2023/12/26 06:30:10;;;;;;;21.50;3.00;;;;;;;;;;5022128;28;25139;-72
2023/12/26 06:32:36;;;;;;;16.75;3.20;;;;;;;;;;5018949;28;25099;-71
2023/12/26 06:35:02;;;;;;;15.95;2.83;;;;;;;;;;5027467;28;25048;-72
2023/12/26 06:37:28;;;;;;;20.27;3.15;;;;;;;;;;5024179;28;25074;-72
2023/12/26 06:39:54;;;;;;;14.68;2.53;;;;;;;;;;5023169;28;25087;-70
2023/12/26 06:42:20;;;;;;;14.13;2.70;;;;;;;;;;5021050;28;25067;-70
2023/12/26 06:44:46;;;;;;;20.55;3.90;;;;;;;;;;5028305;28;25068;-70
2023/12/26 06:47:12;;;;;;;16.25;2.97;;;;;;;;;;5022167;28;25098;-70
2023/12/26 06:49:43;;;;;;;18.55;2.92;;;;;;;;;;5022029;28;25091;-69
2023/12/26 06:52:09;;;;;;;15.35;2.85;;;;;;;;;;5022644;28;25107;-70
2023/12/26 06:54:34;;;;;;;19.95;2.72;;;;;;;;;;5024636;28;25105;-70
2023/12/26 06:57:06;;;;;;;17.95;3.67;;;;;;;;;;5020413;28;25045;-70
2023/12/26 06:59:33;;;;;;;16.42;2.55;;;;;;;;;;5023880;28;25060;-71
2023/12/26 07:01:59;;;;;;;12.52;2.83;;;;;;;;;;5023946;28;25075;-70
2023/12/26 07:04:25;;;;;;;17.67;2.50;;;;;;;;;;5018297;28;25075;-70
2023/12/26 07:06:51;;;;;;;13.13;2.88;;;;;;;;;;5023597;28;25067;-70
2023/12/26 07:09:17;;;;;;;15.32;2.40;;;;;;;;;;5014163;28;25162;-70
2023/12/26 07:11:43;;;;;;;16.45;3.28;;;;;;;;;;5025436;28;25081;-70
2023/12/26 07:14:09;;;;;;;19.33;2.95;;;;;;;;;;5025064;28;25100;-70
2023/12/26 07:16:35;;;;;;;18.80;2.58;;;;;;;;;;5025027;28;25075;-71
2023/12/26 07:19:02;;;;;;;12.18;3.55;;;;;;;;;;5019445;28;25106;-70
2023/12/26 07:21:27;;;;;;;13.15;2.88;;;;;;;;;;5020203;28;25065;-70
2023/12/26 07:23:53;;;;;;;18.35;3.35;;;;;;;;;;5025319;28;25074;-69
2023/12/26 07:26:22;;;;;;;18.88;3.17;;;;;;;;;;5027688;28;25064;-71
2023/12/26 07:28:48;;;;;;;14.15;3.58;;;;;;;;;;5028271;28;25109;-70
2023/12/26 07:31:20;;;;;;;17.45;4.05;;;;;;;;;;5026602;28;25118;-70
2023/12/26 07:33:47;;;;;;;15.77;3.50;;;;;;;;;;5028900;28;25058;-72
2023/12/26 07:36:14;;;;;;;13.98;2.60;;;;;;;;;;5027699;28;25068;-71
2023/12/26 07:38:40;;;;;;;17.30;3.97;;;;;;;;;;5025786;28;25054;-71
2023/12/26 07:41:06;;;;;;;13.80;3.20;;;;;;;;;;5018411;28;25056;-69
2023/12/26 07:43:32;;;;;;;24.27;3.80;;;;;;;;;;5025270;28;25118;-71
2023/12/26 07:45:58;;;;;;;21.42;2.97;;;;;;;;;;5024352;28;25077;-70
2023/12/26 07:48:24;;;;;;;12.45;3.20;;;;;;;;;;5018031;28;25075;-70
2023/12/26 07:50:50;;;;;;;24.38;3.22;;;;;;;;;;5022774;28;25094;-70
2023/12/26 07:53:16;;;;;;;13.98;3.13;;;;;;;;;;5024730;28;25067;-70
2023/12/26 07:55:42;;;;;;;21.40;3.40;;;;;;;;;;5027174;28;25102;-71
2023/12/26 07:58:08;;;;;;;24.52;3.58;;;;;;;;;;5025674;28;25171;-71
2023/12/26 08:00:35;;;;;;;15.07;3.42;;;;;;;;;;5024100;28;25080;-71
2023/12/26 08:03:01;;;;;;;13.65;2.50;;;;;;;;;;5023329;28;25127;-71
2023/12/26 08:05:27;;;;;;;15.07;3.28;;;;;;;;;;5024244;28;25128;-71
2023/12/26 08:07:53;;;;;;;22.23;5.00;;;;;;;;;;5025777;28;25123;-73
2023/12/26 08:10:19;;;;;;;22.88;3.53;;;;;;;;;;5023277;28;25089;-71
2023/12/26 08:12:45;;;;;;;13.05;3.03;;;;;;;;;;5025996;28;25057;-72
2023/12/26 08:15:11;;;;;;;20.52;3.33;;;;;;;;;;5020020;28;25067;-72
2023/12/26 08:17:37;;;;;;;17.63;3.45;;;;;;;;;;5023743;28;25061;-70
2023/12/26 08:20:04;;;;;;;17.83;3.72;;;;;;;;;;5020831;28;25091;-72
2023/12/26 08:22:30;;;;;;;22.25;3.60;;;;;;;;;;5026931;28;25142;-72
2023/12/26 08:24:56;;;;;;;18.90;3.90;;;;;;;;;;5025120;28;25074;-71
2023/12/26 08:27:23;;;;;;;24.92;4.47;;;;;;;;;;5018135;28;25054;-71
2023/12/26 08:29:49;;;;;;;21.98;3.45;;;;;;;;;;5021709;28;25137;-70
2023/12/26 08:32:15;;;;;;;30.10;4.38;;;;;;;;;;5022889;28;25102;-70
2023/12/26 08:34:44;;;;;;;21.98;4.10;;;;;;;;;;5018072;28;25056;-69
2023/12/26 08:37:11;;;;;;;24.02;3.90;;;;;;;;;;5025153;28;25127;-70
2023/12/26 08:39:37;;;;;;;18.98;3.70;;;;;;;;;;5024223;28;25114;-70
2023/12/26 08:42:03;;;;;;;25.10;4.93;;;;;;;;;;5020033;28;25123;-70
2023/12/26 08:44:29;;;;;;;21.52;4.03;;;;;;;;;;5016483;28;25121;-70
2023/12/26 08:46:55;;;;;;;23.33;5.45;;;;;;;;;;5018360;28;25111;-67
2023/12/26 08:49:21;;;;;;;23.73;4.53;;;;;;;;;;5026106;28;25092;-69
2023/12/26 08:51:47;;;;;;;21.65;4.50;;;;;;;;;;5025006;28;25103;-68
2023/12/26 08:54:14;;;;;;;20.40;4.20;;;;;;;;;;5025684;28;25049;-69
2023/12/26 08:56:41;;;;;;;19.02;4.22;;;;;;;;;;5028428;28;25029;-69
2023/12/26 08:59:07;;;;;;;24.92;4.45;;;;;;;;;;5025976;28;25117;-68
2023/12/26 09:01:34;;;;;;;21.33;3.42;;;;;;;;;;5024804;28;25076;-70
2023/12/26 09:04:00;;;;;;;25.02;3.97;;;;;;;;;;5025272;28;25140;-71
2023/12/26 09:06:26;;;;;;;26.17;4.00;;;;;;;;;;5027301;28;25071;-71
2023/12/26 09:08:52;;;;;;;18.73;4.03;;;;;;;;;;5020182;28;25168;-71
2023/12/26 09:11:17;;;;;;;22.75;4.05;;;;;;;;;;5023282;28;25188;-71
2023/12/26 09:13:43;;;;;;;19.33;3.90;;;;;;;;;;5025209;28;25117;-71
2023/12/26 09:16:09;;;;;;;17.50;3.88;;;;;;;;;;5024556;28;25121;-70
2023/12/26 09:18:35;;;;;;;23.80;4.88;;;;;;;;;;5027968;28;25128;-71
2023/12/26 09:21:01;;;;;;;19.58;4.13;;;;;;;;;;5023566;28;25040;-70
2023/12/26 09:23:27;;;;;;;25.10;3.40;;;;;;;;;;5024399;28;25059;-70
2023/12/26 09:25:53;;;;;;;18.55;3.78;;;;;;;;;;5015174;28;25095;-69
2023/12/26 09:28:19;;;;;;;14.32;3.22;;;;;;;;;;5025071;28;25073;-70
2023/12/26 09:30:45;;;;;;;19.25;4.28;;;;;;;;;;5032275;28;25059;-70
2023/12/26 09:33:11;;;;;;;18.85;3.20;;;;;;;;;;5027643;28;25087;-70
2023/12/26 09:35:37;;;;;;;19.48;4.15;;;;;;;;;;5031404;28;25050;-70
2023/12/26 09:38:03;;;;;;;21.73;3.78;;;;;;;;;;5022716;28;25128;-70
2023/12/26 09:40:29;;;;;;;30.58;4.18;;;;;;;;;;5025690;28;25163;-71
2023/12/26 09:42:59;;;;;;;24.40;4.13;;;;;;;;;;5023463;28;25088;-71
2023/12/26 09:45:27;;;;;;;21.00;3.50;;;;;;;;;;5016685;28;25129;-70
2023/12/26 09:47:53;;;;;;;15.73;3.53;;;;;;;;;;5023461;28;25073;-70
2023/12/26 09:50:20;;;;;;;21.75;4.10;;;;;;;;;;5025293;28;25120;-72
2023/12/26 09:52:51;;;;;;;16.42;3.03;;;;;;;;;;5022671;28;25060;-72
2023/12/26 09:55:17;;;;;;;19.30;4.18;;;;;;;;;;5024216;28;25067;-69
2023/12/26 09:57:43;;;;;;;32.72;4.80;;;;;;;;;;5025622;28;25136;-71
2023/12/26 10:00:09;;;;;;;13.73;3.75;;;;;;;;;;5017743;28;25063;-71
2023/12/26 10:02:35;;;;;;;21.23;3.60;;;;;;;;;;5020616;28;25068;-72
2023/12/26 10:05:01;;;;;;;17.65;3.90;;;;;;;;;;5019451;28;25078;-71
2023/12/26 10:07:28;;;;;;;27.08;3.97;;;;;;;;;;5020416;28;25107;-71
2023/12/26 10:09:55;;;;;;;19.88;4.32;;;;;;;;;;5021764;28;25138;-71
2023/12/26 10:12:26;;;;;;;17.80;2.67;;;;;;;;;;5017844;28;25040;-70
2023/12/26 10:14:57;;;;;;;20.75;3.78;;;;;;;;;;5021642;28;25096;-71
2023/12/26 10:17:23;;;;;;;20.95;3.00;;;;;;;;;;5022590;28;25058;-72
2023/12/26 10:19:49;;;;;;;23.08;4.53;;;;;;;;;;5021692;28;25046;-71
2023/12/26 10:22:15;;;;;;;24.45;3.60;;;;;;;;;;5018354;28;25076;-73
2023/12/26 10:24:41;;;;;;;17.63;3.22;;;;;;;;;;5025497;28;25065;-70
2023/12/26 10:27:07;;;;;;;16.90;4.50;;;;;;;;;;5020423;28;25060;-71
2023/12/26 10:29:33;;;;;;;18.27;3.78;;;;;;;;;;5020516;28;25061;-69
2023/12/26 10:32:03;;;;;;;23.83;4.00;;;;;;;;;;5020575;28;25072;-67
2023/12/26 10:34:29;;;;;;;22.88;4.18;;;;;;;;;;5020543;28;25082;-70
2023/12/26 10:36:56;;;;;;;25.15;4.03;;;;;;;;;;5020025;28;25080;-69
2023/12/26 10:39:23;;;;;;;19.30;3.40;;;;;;;;;;5024445;28;25089;-71
2023/12/26 10:41:49;;;;;;;21.58;3.50;;;;;;;;;;5021697;28;25162;-72
2023/12/26 10:44:17;;;;;;;25.42;5.35;;;;;;;;;;5024563;28;25078;-71
2023/12/26 10:46:43;;;;;;;20.33;3.97;;;;;;;;;;5024205;28;25052;-70
2023/12/26 10:49:18;;;;;;;23.38;4.47;;;;;;;;;;5017404;28;25051;-70
2023/12/26 10:51:44;;;;;;;16.95;3.17;;;;;;;;;;5026660;28;25124;-72
2023/12/26 10:54:15;;;;;;;22.05;3.88;;;;;;;;;;5024528;28;25087;-70
2023/12/26 10:56:41;;;;;;;24.02;4.25;;;;;;;;;;5026205;28;25064;-69
2023/12/26 10:59:08;;;;;;;27.98;4.35;;;;;;;;;;5027540;28;25062;-70
2023/12/26 11:01:34;;;;;;;30.27;5.00;;;;;;;;;;5022196;28;25151;-70
2023/12/26 11:04:01;;;;;;;24.58;4.70;;;;;;;;;;5028197;28;25061;-71
2023/12/26 11:06:27;;;;;;;26.73;3.85;;;;;;;;;;5026617;28;25120;-70
2023/12/26 11:08:53;;;;;;;20.50;3.60;;;;;;;;;;5026362;28;25165;-70
2023/12/26 11:11:19;;;;;;;30.35;5.00;;;;;;;;;;5026708;28;25092;-70
2023/12/26 11:13:46;;;;;;;19.30;3.75;;;;;;;;;;5027123;28;25080;-71
2023/12/26 11:16:12;;;;;;;23.75;3.60;;;;;;;;;;5025093;28;25132;-71
2023/12/26 11:18:38;;;;;;;28.50;5.95;;;;;;;;;;5026617;28;25051;-70
2023/12/26 11:21:05;;;;;;;26.20;4.32;;;;;;;;;;5027536;28;25058;-71
2023/12/26 11:23:31;;;;;;;14.95;3.78;;;;;;;;;;5026648;28;25078;-71
2023/12/26 11:25:58;;;;;;;41.75;5.18;;;;;;;;;;5024132;28;25073;-73
2023/12/26 11:28:24;;;;;;;24.83;4.05;;;;;;;;;;5024919;28;25142;-70
2023/12/26 11:30:51;;;;;;;22.70;4.32;;;;;;;;;;5027333;28;25136;-70
2023/12/26 11:33:17;;;;;;;30.05;4.10;;;;;;;;;;5026913;28;25123;-71
2023/12/26 11:35:46;;;;;;;23.70;4.15;;;;;;;;;;5026920;28;25087;-70
2023/12/26 11:38:12;;;;;;;21.85;4.05;;;;;;;;;;5027358;28;25056;-71
2023/12/26 11:40:38;;;;;;;19.20;4.32;;;;;;;;;;5028456;28;25136;-70
2023/12/26 11:43:04;;;;;;;23.02;4.35;;;;;;;;;;5024927;28;25080;-72
2023/12/26 11:45:30;;;;;;;23.88;3.78;;;;;;;;;;5030498;28;25083;-69
2023/12/26 11:47:56;;;;;;;16.27;3.35;;;;;;;;;;5024693;28;25070;-71
2023/12/26 11:50:22;;;;;;;31.65;5.03;;;;;;;;;;5025946;28;25069;-72
2023/12/26 11:52:48;;;;;;;28.33;4.20;;;;;;;;;;5025806;28;25053;-71
2023/12/26 11:55:13;;;;;;;27.33;5.32;;;;;;;;;;5022083;28;25141;-71
2023/12/26 11:57:39;;;;;;;23.80;4.63;;;;;;;;;;5025459;28;25081;-74
2023/12/26 12:00:05;;;;;;;17.75;3.72;;;;;;;;;;5024206;28;25065;-72
2023/12/26 12:02:31;;;;;;;24.25;3.78;;;;;;;;;;5023202;28;25057;-72
2023/12/26 12:05:03;;;;;;;31.45;4.53;;;;;;;;;;5024644;28;25055;-71
2023/12/26 12:07:29;;;;;;;19.48;4.00;;;;;;;;;;5026222;28;25095;-71
2023/12/26 12:10:08;;;;;;;19.52;3.75;;;;;;;;;;5026825;28;25107;-71
2023/12/26 12:12:34;;;;;;;23.45;4.65;;;;;;;;;;5020311;28;25113;-70
2023/12/26 12:15:00;;;;;;;20.73;3.70;;;;;;;;;;5023044;28;25074;-72
2023/12/26 12:17:26;;;;;;;24.95;5.15;;;;;;;;;;5023249;28;25046;-72
2023/12/26 12:19:52;;;;;;;23.42;4.07;;;;;;;;;;5026690;28;25093;-72
2023/12/26 12:22:25;;;;;;;19.67;4.57;;;;;;;;;;5021088;28;25068;-71
2023/12/26 12:24:51;;;;;;;21.50;4.82;;;;;;;;;;5024713;28;25160;-71
2023/12/26 12:27:17;;;;;;;22.67;4.07;;;;;;;;;;5024145;28;25148;-71
2023/12/26 12:29:58;;;;;;;24.38;4.43;;;;;;;;;;5025564;28;25145;-72
2023/12/26 12:32:34;;;;;;;20.88;3.92;;;;;;;;;;5020297;28;25098;-70
2023/12/26 12:35:17;;;;;;;13.85;3.78;;;;;;;;;;5022734;28;25065;-70
2023/12/26 12:37:46;;;;;;;26.92;5.00;;;;;;;;;;5023012;28;25146;-70
2023/12/26 12:40:12;;;;;;;17.30;3.60;;;;;;;;;;5020185;28;25160;-72
2023/12/26 12:42:38;;;;;;;15.95;3.60;;;;;;;;;;5024832;28;25168;-70
2023/12/26 12:45:04;;;;;;;11.00;3.58;;;;;;;;;;5024385;28;25116;-69
2023/12/26 12:47:31;;;;;;;12.13;2.58;;;;;;;;;;5025164;28;25147;-71
2023/12/26 12:49:57;;;;;;;18.67;3.47;;;;;;;;;;5021443;28;25139;-70
2023/12/26 12:52:23;;;;;;;14.13;3.47;;;;;;;;;;5027340;28;25105;-72
2023/12/26 12:54:49;;;;;;;18.73;4.25;;;;;;;;;;5022374;28;25108;-71
2023/12/26 12:57:15;;;;;;;16.77;3.40;;;;;;;;;;5023170;28;25076;-71
2023/12/26 12:59:41;;;;;;;22.02;3.72;;;;;;;;;;5023070;28;25061;-69
2023/12/26 13:02:10;;;;;;;13.45;3.10;;;;;;;;;;5026200;28;25069;-71
2023/12/26 13:04:39;;;;;;;14.32;3.05;;;;;;;;;;5035895;28;25056;-70
2023/12/26 13:07:05;;;;;;;19.17;3.17;;;;;;;;;;5022270;28;25075;-71
2023/12/26 13:09:31;;;;;;;21.95;3.35;;;;;;;;;;5027149;28;25135;-70
2023/12/26 13:11:57;;;;;;;19.08;3.38;;;;;;;;;;5030718;28;25062;-71
2023/12/26 13:14:23;;;;;;;17.42;3.00;;;;;;;;;;5027867;28;25075;-70
2023/12/26 13:16:49;;;;;;;20.48;2.92;;;;;;;;;;5023785;28;25060;-71
2023/12/26 13:19:15;;;;;;;13.02;2.42;;;;;;;;;;5024069;28;25076;-72
2023/12/26 13:21:44;;;;;;;10.70;3.15;;;;;;;;;;5021355;28;25085;-71
2023/12/26 13:24:19;;;;;;;16.38;2.95;;;;;;;;;;5024201;28;25149;-72
2023/12/26 13:26:45;;;;;;;16.63;2.88;;;;;;;;;;5024818;28;25075;-70
2023/12/26 13:29:21;;;;;;;12.13;3.05;;;;;;;;;;5023795;28;25070;-71
2023/12/26 13:31:47;;;;;;;14.65;2.92;;;;;;;;;;5022874;28;25070;-71
2023/12/26 13:34:13;;;;;;;15.25;2.50;;;;;;;;;;5021421;28;25071;-72
2023/12/26 13:36:39;;;;;;;10.43;2.55;;;;;;;;;;5023608;28;25065;-71
2023/12/26 13:39:05;;;;;;;13.07;2.90;;;;;;;;;;5019137;28;25064;-71
2023/12/26 13:41:31;;;;;;;12.68;2.95;;;;;;;;;;5024609;28;25104;-71
2023/12/26 13:43:56;;;;;;;11.40;2.35;;;;;;;;;;5020962;28;25157;-71
2023/12/26 13:46:22;;;;;;;8.93;2.30;;;;;;;;;;5023071;28;25147;-71
2023/12/26 13:48:48;;;;;;;13.10;4.13;;;;;;;;;;5022876;28;25108;-71
2023/12/26 13:51:14;;;;;;;10.57;1.88;;;;;;;;;;5022348;28;25057;-71
2023/12/26 13:53:40;;;;;;;12.93;2.75;;;;;;;;;;5021439;28;25056;-71
2023/12/26 13:56:07;;;;;;;14.18;2.85;;;;;;;;;;5024569;28;25065;-72
2023/12/26 13:58:33;;;;;;;14.68;2.20;;;;;;;;;;5022117;28;25054;-71
2023/12/26 14:00:59;;;;;;;7.78;1.88;;;;;;;;;;5023897;28;25061;-71
2023/12/26 14:03:28;;;;;;;13.07;2.67;;;;;;;;;;5023523;28;25078;-70
2023/12/26 14:05:54;;;;;;;12.25;2.90;;;;;;;;;;5024410;28;25083;-72
2023/12/26 14:08:20;;;;;;;14.35;2.78;;;;;;;;;;5023628;28;25080;-73
2023/12/26 14:10:46;;;;;;;13.65;3.92;;;;;;;;;;5025131;28;25101;-71
2023/12/26 14:13:12;;;;;;;10.55;2.65;;;;;;;;;;5024157;28;25073;-71
2023/12/26 14:15:38;;;;;;;12.73;2.30;;;;;;;;;;5025436;28;25084;-72
2023/12/26 14:18:08;;;;;;;9.38;2.40;;;;;;;;;;5019321;28;25121;-72
2023/12/26 14:20:34;;;;;;;12.05;2.85;;;;;;;;;;5023476;28;25053;-72
2023/12/26 14:22:59;;;;;;;13.00;2.88;;;;;;;;;;5020130;28;25080;-72
2023/12/26 14:25:28;;;;;;;10.73;2.60;;;;;;;;;;5024692;28;25079;-70
2023/12/26 14:27:54;;;;;;;8.80;2.03;;;;;;;;;;5022306;28;25130;-71